Rogiet, United Kingdom
Current Conditions -  °F | °C
As of 10:20 PM on Sunday 25 Jan 2015 (Local Time) from EGGD Reporting Station
Broken Clouds Broken Clouds  
Wind Chill: 41°   Ceiling: 900
Heat Index: 46°   Visibility: 6mi
Dew Point: 45°   Wind: 10mph
Humidity: 93%   Direction: 230°SW
Pressure: 30.3"   Gusts: NA
Location:  51.59°N, 2.78°W
Report Text: EGGD 252220Z 23009KT 9999 BKN009 08/07 Q1026
Loading
Personal Weather Stations






























Interactive Weather Map New forecast layout! Learn more

10-Day Weather Forecast

Advertisements
Track Severe Weather on mobile